sensor_id;sensor_type;location;lat;lon;timestamp;temperature;humidity
16174;DHT22;14031;50.158;8.626;2024-02-23T00:01:45;9.40;99.90
16174;DHT22;14031;50.158;8.626;2024-02-23T00:04:12;9.40;99.90
16174;DHT22;14031;50.158;8.626;2024-02-23T00:06:39;9.40;99.90
16174;DHT22;14031;50.158;8.626;2024-02-23T00:09:05;9.50;99.90
16174;DHT22;14031;50.158;8.626;2024-02-23T00:11:32;9.10;99.90
16174;DHT22;14031;50.158;8.626;2024-02-23T00:14:00;9.00;99.90
16174;DHT22;14031;50.158;8.626;2024-02-23T00:16:28;8.90;99.90
16174;DHT22;14031;50.158;8.626;2024-02-23T00:18:55;8.70;99.90
16174;DHT22;14031;50.158;8.626;2024-02-23T00:21:21;8.90;99.90
16174;DHT22;14031;50.158;8.626;2024-02-23T00:23:48;8.90;99.90
16174;DHT22;14031;50.158;8.626;2024-02-23T00:26:15;8.80;99.90
16174;DHT22;14031;50.158;8.626;2024-02-23T00:28:42;8.90;99.90
16174;DHT22;14031;50.158;8.626;2024-02-23T00:31:10;8.80;99.90
16174;DHT22;14031;50.158;8.626;2024-02-23T00:33:36;9.10;99.90
16174;DHT22;14031;50.158;8.626;2024-02-23T00:36:07;9.10;99.90
16174;DHT22;14031;50.158;8.626;2024-02-23T00:38:34;9.10;99.90
16174;DHT22;14031;50.158;8.626;2024-02-23T00:41:01;9.10;99.90
16174;DHT22;14031;50.158;8.626;2024-02-23T00:43:28;9.20;99.90
16174;DHT22;14031;50.158;8.626;2024-02-23T00:45:55;9.20;99.90
16174;DHT22;14031;50.158;8.626;2024-02-23T00:48:23;9.20;99.90
16174;DHT22;14031;50.158;8.626;2024-02-23T00:50:49;9.10;99.90
16174;DHT22;14031;50.158;8.626;2024-02-23T00:53:16;9.10;99.90
16174;DHT22;14031;50.158;8.626;2024-02-23T00:55:46;9.10;99.90
16174;DHT22;14031;50.158;8.626;2024-02-23T00:58:12;9.00;99.90
16174;DHT22;14031;50.158;8.626;2024-02-23T01:00:41;9.20;99.90
16174;DHT22;14031;50.158;8.626;2024-02-23T01:03:08;9.10;99.90
16174;DHT22;14031;50.158;8.626;2024-02-23T01:05:36;9.20;99.90
16174;DHT22;14031;50.158;8.626;2024-02-23T01:08:04;9.00;99.90
16174;DHT22;14031;50.158;8.626;2024-02-23T01:10:31;9.00;99.90
16174;DHT22;14031;50.158;8.626;2024-02-23T01:12:58;9.20;99.90
16174;DHT22;14031;50.158;8.626;2024-02-23T01:15:25;9.10;99.90
16174;DHT22;14031;50.158;8.626;2024-02-23T01:17:51;9.00;99.90
16174;DHT22;14031;50.158;8.626;2024-02-23T01:20:18;9.10;99.90
16174;DHT22;14031;50.158;8.626;2024-02-23T01:22:46;9.10;99.90
16174;DHT22;14031;50.158;8.626;2024-02-23T01:25:13;8.80;99.90
16174;DHT22;14031;50.158;8.626;2024-02-23T01:27:41;8.60;99.90
16174;DHT22;14031;50.158;8.626;2024-02-23T01:30:10;8.50;99.90
16174;DHT22;14031;50.158;8.626;2024-02-23T01:32:37;8.40;99.90
16174;DHT22;14031;50.158;8.626;2024-02-23T01:35:05;8.30;99.90
16174;DHT22;14031;50.158;8.626;2024-02-23T01:37:33;8.30;99.90
16174;DHT22;14031;50.158;8.626;2024-02-23T01:40:01;8.30;99.90
16174;DHT22;14031;50.158;8.626;2024-02-23T01:42:28;8.30;99.90
16174;DHT22;14031;50.158;8.626;2024-02-23T01:44:54;8.30;99.90
16174;DHT22;14031;50.158;8.626;2024-02-23T01:47:22;8.20;99.90
16174;DHT22;14031;50.158;8.626;2024-02-23T01:49:49;8.00;99.90
16174;DHT22;14031;50.158;8.626;2024-02-23T01:52:17;8.00;99.90
16174;DHT22;14031;50.158;8.626;2024-02-23T01:54:44;8.00;99.90
16174;DHT22;14031;50.158;8.626;2024-02-23T01:57:12;8.00;99.90
16174;DHT22;14031;50.158;8.626;2024-02-23T01:59:40;8.00;99.90
16174;DHT22;14031;50.158;8.626;2024-02-23T02:02:07;7.90;99.90
16174;DHT22;14031;50.158;8.626;2024-02-23T02:04:34;7.80;99.90
16174;DHT22;14031;50.158;8.626;2024-02-23T02:07:01;7.80;99.90
16174;DHT22;14031;50.158;8.626;2024-02-23T02:09:28;7.70;99.90
16174;DHT22;14031;50.158;8.626;2024-02-23T02:11:55;7.60;99.90
16174;DHT22;14031;50.158;8.626;2024-02-23T02:14:23;7.60;99.90
16174;DHT22;14031;50.158;8.626;2024-02-23T02:16:51;7.60;99.90
16174;DHT22;14031;50.158;8.626;2024-02-23T02:19:18;7.60;99.90
16174;DHT22;14031;50.158;8.626;2024-02-23T02:21:44;7.60;99.90
16174;DHT22;14031;50.158;8.626;2024-02-23T02:24:11;7.50;99.90
16174;DHT22;14031;50.158;8.626;2024-02-23T02:26:38;7.60;99.90
16174;DHT22;14031;50.158;8.626;2024-02-23T02:29:05;7.60;99.90
16174;DHT22;14031;50.158;8.626;2024-02-23T02:31:33;7.70;99.90
16174;DHT22;14031;50.158;8.626;2024-02-23T02:34:03;7.60;99.90
16174;DHT22;14031;50.158;8.626;2024-02-23T02:36:30;7.70;99.90
16174;DHT22;14031;50.158;8.626;2024-02-23T02:38:56;7.60;99.90
16174;DHT22;14031;50.158;8.626;2024-02-23T02:41:24;7.50;99.90
16174;DHT22;14031;50.158;8.626;2024-02-23T02:43:54;7.50;99.90
16174;DHT22;14031;50.158;8.626;2024-02-23T02:46:21;7.40;99.90
16174;DHT22;14031;50.158;8.626;2024-02-23T02:48:49;7.40;99.90
16174;DHT22;14031;50.158;8.626;2024-02-23T02:51:16;7.30;99.90
16174;DHT22;14031;50.158;8.626;2024-02-23T02:53:43;7.40;99.90
16174;DHT22;14031;50.158;8.626;2024-02-23T02:56:09;7.30;99.90
16174;DHT22;14031;50.158;8.626;2024-02-23T02:58:36;7.30;99.90
16174;DHT22;14031;50.158;8.626;2024-02-23T03:01:03;7.30;99.90
16174;DHT22;14031;50.158;8.626;2024-02-23T03:03:30;7.50;99.90
16174;DHT22;14031;50.158;8.626;2024-02-23T03:05:58;7.60;99.90
16174;DHT22;14031;50.158;8.626;2024-02-23T03:08:25;7.60;99.90
16174;DHT22;14031;50.158;8.626;2024-02-23T03:10:52;7.60;99.90
16174;DHT22;14031;50.158;8.626;2024-02-23T03:13:18;7.70;99.90
16174;DHT22;14031;50.158;8.626;2024-02-23T03:15:45;7.70;99.90
16174;DHT22;14031;50.158;8.626;2024-02-23T03:18:12;7.70;99.90
16174;DHT22;14031;50.158;8.626;2024-02-23T03:20:40;7.70;99.90
16174;DHT22;14031;50.158;8.626;2024-02-23T03:23:08;7.70;99.90
16174;DHT22;14031;50.158;8.626;2024-02-23T03:25:35;7.70;99.90
16174;DHT22;14031;50.158;8.626;2024-02-23T03:28:02;7.70;99.90
16174;DHT22;14031;50.158;8.626;2024-02-23T03:30:29;7.60;99.90
16174;DHT22;14031;50.158;8.626;2024-02-23T03:32:55;7.60;99.90
16174;DHT22;14031;50.158;8.626;2024-02-23T03:35:22;7.70;99.90
16174;DHT22;14031;50.158;8.626;2024-02-23T03:37:49;7.70;99.90
16174;DHT22;14031;50.158;8.626;2024-02-23T03:40:17;7.60;99.90
16174;DHT22;14031;50.158;8.626;2024-02-23T03:42:44;7.70;99.90
16174;DHT22;14031;50.158;8.626;2024-02-23T03:45:11;7.70;99.90
16174;DHT22;14031;50.158;8.626;2024-02-23T03:47:38;7.70;99.90
16174;DHT22;14031;50.158;8.626;2024-02-23T03:50:06;7.80;99.90
16174;DHT22;14031;50.158;8.626;2024-02-23T03:52:33;7.80;99.90
16174;DHT22;14031;50.158;8.626;2024-02-23T03:55:00;7.80;99.90
16174;DHT22;14031;50.158;8.626;2024-02-23T03:57:29;7.70;99.90
16174;DHT22;14031;50.158;8.626;2024-02-23T03:59:56;7.70;99.90
16174;DHT22;14031;50.158;8.626;2024-02-23T04:02:23;7.50;99.90
16174;DHT22;14031;50.158;8.626;2024-02-23T04:04:50;7.50;99.90
16174;DHT22;14031;50.158;8.626;2024-02-23T04:07:17;7.40;99.90
16174;DHT22;14031;50.158;8.626;2024-02-23T04:09:43;7.40;99.90
16174;DHT22;14031;50.158;8.626;2024-02-23T04:12:10;7.40;99.90
16174;DHT22;14031;50.158;8.626;2024-02-23T04:14:39;7.40;99.90
16174;DHT22;14031;50.158;8.626;2024-02-23T04:17:06;7.30;99.90
16174;DHT22;14031;50.158;8.626;2024-02-23T04:19:32;7.40;99.90
16174;DHT22;14031;50.158;8.626;2024-02-23T04:21:59;7.40;99.90
16174;DHT22;14031;50.158;8.626;2024-02-23T04:24:26;7.40;99.90
16174;DHT22;14031;50.158;8.626;2024-02-23T04:26:53;7.50;99.90
16174;DHT22;14031;50.158;8.626;2024-02-23T04:29:18;7.40;99.90
16174;DHT22;14031;50.158;8.626;2024-02-23T04:31:46;7.40;99.90
16174;DHT22;14031;50.158;8.626;2024-02-23T04:34:15;7.40;99.90
16174;DHT22;14031;50.158;8.626;2024-02-23T04:36:42;7.40;99.90
16174;DHT22;14031;50.158;8.626;2024-02-23T04:39:09;7.30;99.90
16174;DHT22;14031;50.158;8.626;2024-02-23T04:41:35;7.30;99.90
16174;DHT22;14031;50.158;8.626;2024-02-23T04:44:02;7.40;99.90
16174;DHT22;14031;50.158;8.626;2024-02-23T04:46:30;7.30;99.90
16174;DHT22;14031;50.158;8.626;2024-02-23T04:49:01;7.40;99.90
16174;DHT22;14031;50.158;8.626;2024-02-23T04:51:28;7.20;99.90
16174;DHT22;14031;50.158;8.626;2024-02-23T04:53:55;7.30;99.90
16174;DHT22;14031;50.158;8.626;2024-02-23T04:56:21;7.40;99.90
16174;DHT22;14031;50.158;8.626;2024-02-23T04:58:48;7.20;99.90
16174;DHT22;14031;50.158;8.626;2024-02-23T05:01:15;7.20;99.90
16174;DHT22;14031;50.158;8.626;2024-02-23T05:03:41;7.20;99.90
16174;DHT22;14031;50.158;8.626;2024-02-23T05:06:10;7.10;99.90
16174;DHT22;14031;50.158;8.626;2024-02-23T05:08:37;7.10;99.90
16174;DHT22;14031;50.158;8.626;2024-02-23T05:11:04;7.00;99.90
16174;DHT22;14031;50.158;8.626;2024-02-23T05:13:31;7.10;99.90
16174;DHT22;14031;50.158;8.626;2024-02-23T05:15:58;7.00;99.90
16174;DHT22;14031;50.158;8.626;2024-02-23T05:18:24;7.00;99.90
16174;DHT22;14031;50.158;8.626;2024-02-23T05:20:51;6.80;99.90
16174;DHT22;14031;50.158;8.626;2024-02-23T05:23:19;6.80;99.90
16174;DHT22;14031;50.158;8.626;2024-02-23T05:25:46;6.80;99.90
16174;DHT22;14031;50.158;8.626;2024-02-23T05:28:13;6.60;99.90
16174;DHT22;14031;50.158;8.626;2024-02-23T05:30:40;6.70;99.90
16174;DHT22;14031;50.158;8.626;2024-02-23T05:33:07;6.70;99.90
16174;DHT22;14031;50.158;8.626;2024-02-23T05:35:34;6.60;99.90
16174;DHT22;14031;50.158;8.626;2024-02-23T05:38:00;6.60;99.90
16174;DHT22;14031;50.158;8.626;2024-02-23T05:40:29;6.50;99.90
16174;DHT22;14031;50.158;8.626;2024-02-23T05:42:55;6.50;99.90
16174;DHT22;14031;50.158;8.626;2024-02-23T05:45:22;6.50;99.90
16174;DHT22;14031;50.158;8.626;2024-02-23T05:47:49;6.40;99.90
16174;DHT22;14031;50.158;8.626;2024-02-23T05:50:16;6.30;99.90
16174;DHT22;14031;50.158;8.626;2024-02-23T05:52:42;6.20;99.90
16174;DHT22;14031;50.158;8.626;2024-02-23T05:55:09;6.10;99.90
16174;DHT22;14031;50.158;8.626;2024-02-23T05:57:37;6.10;99.90
16174;DHT22;14031;50.158;8.626;2024-02-23T06:00:05;6.10;99.90
16174;DHT22;14031;50.158;8.626;2024-02-23T06:02:33;6.10;99.90
16174;DHT22;14031;50.158;8.626;2024-02-23T06:04:59;6.30;99.90
16174;DHT22;14031;50.158;8.626;2024-02-23T06:07:26;6.20;99.90
16174;DHT22;14031;50.158;8.626;2024-02-23T06:09:54;6.10;99.90
16174;DHT22;14031;50.158;8.626;2024-02-23T06:12:21;6.10;99.90
16174;DHT22;14031;50.158;8.626;2024-02-23T06:14:51;6.00;99.90
16174;DHT22;14031;50.158;8.626;2024-02-23T06:17:17;6.00;99.90
16174;DHT22;14031;50.158;8.626;2024-02-23T06:19:44;6.00;99.90
16174;DHT22;14031;50.158;8.626;2024-02-23T06:22:11;6.00;99.90
16174;DHT22;14031;50.158;8.626;2024-02-23T06:24:38;6.10;99.90
16174;DHT22;14031;50.158;8.626;2024-02-23T06:27:04;6.20;99.90
16174;DHT22;14031;50.158;8.626;2024-02-23T06:29:31;6.20;99.90
16174;DHT22;14031;50.158;8.626;2024-02-23T06:31:59;6.30;99.90
16174;DHT22;14031;50.158;8.626;2024-02-23T06:34:28;6.30;99.90
16174;DHT22;14031;50.158;8.626;2024-02-23T06:36:55;6.40;99.90
16174;DHT22;14031;50.158;8.626;2024-02-23T06:39:22;6.50;99.90
16174;DHT22;14031;50.158;8.626;2024-02-23T06:41:49;6.40;99.90
16174;DHT22;14031;50.158;8.626;2024-02-23T06:44:16;6.50;99.90
16174;DHT22;14031;50.158;8.626;2024-02-23T06:46:42;6.60;99.90
16174;DHT22;14031;50.158;8.626;2024-02-23T06:49:11;6.70;99.90
16174;DHT22;14031;50.158;8.626;2024-02-23T06:51:38;6.70;99.90
16174;DHT22;14031;50.158;8.626;2024-02-23T06:54:06;6.70;99.90
16174;DHT22;14031;50.158;8.626;2024-02-23T06:56:33;6.70;99.90
16174;DHT22;14031;50.158;8.626;2024-02-23T06:59:00;6.60;99.90
16174;DHT22;14031;50.158;8.626;2024-02-23T07:01:27;6.70;99.90
16174;DHT22;14031;50.158;8.626;2024-02-23T07:03:54;6.80;99.90
16174;DHT22;14031;50.158;8.626;2024-02-23T07:06:22;6.80;99.90
16174;DHT22;14031;50.158;8.626;2024-02-23T07:08:49;6.80;99.90
16174;DHT22;14031;50.158;8.626;2024-02-23T07:11:15;6.80;99.90
16174;DHT22;14031;50.158;8.626;2024-02-23T07:13:43;6.80;99.90
16174;DHT22;14031;50.158;8.626;2024-02-23T07:16:10;6.90;99.90
16174;DHT22;14031;50.158;8.626;2024-02-23T07:18:37;6.90;99.90
16174;DHT22;14031;50.158;8.626;2024-02-23T07:21:04;7.00;99.90
16174;DHT22;14031;50.158;8.626;2024-02-23T07:23:32;7.00;99.90
16174;DHT22;14031;50.158;8.626;2024-02-23T07:25:59;7.00;99.90
16174;DHT22;14031;50.158;8.626;2024-02-23T07:28:25;7.00;99.90
16174;DHT22;14031;50.158;8.626;2024-02-23T07:30:52;7.00;99.90
16174;DHT22;14031;50.158;8.626;2024-02-23T07:33:19;7.10;99.90
16174;DHT22;14031;50.158;8.626;2024-02-23T07:35:46;7.20;99.90
16174;DHT22;14031;50.158;8.626;2024-02-23T07:38:13;7.30;99.90
16174;DHT22;14031;50.158;8.626;2024-02-23T07:40:41;7.30;99.90
16174;DHT22;14031;50.158;8.626;2024-02-23T07:43:08;7.50;99.90
16174;DHT22;14031;50.158;8.626;2024-02-23T07:45:36;7.50;99.90
16174;DHT22;14031;50.158;8.626;2024-02-23T07:48:03;7.60;99.90
16174;DHT22;14031;50.158;8.626;2024-02-23T07:50:30;7.60;99.90
16174;DHT22;14031;50.158;8.626;2024-02-23T07:52:57;7.70;99.90
16174;DHT22;14031;50.158;8.626;2024-02-23T07:55:23;7.60;99.90
16174;DHT22;14031;50.158;8.626;2024-02-23T07:57:52;7.60;99.90
16174;DHT22;14031;50.158;8.626;2024-02-23T08:00:23;7.60;99.90
16174;DHT22;14031;50.158;8.626;2024-02-23T08:02:49;7.60;99.90
16174;DHT22;14031;50.158;8.626;2024-02-23T08:05:16;7.60;99.90
16174;DHT22;14031;50.158;8.626;2024-02-23T08:07:43;7.60;99.90
16174;DHT22;14031;50.158;8.626;2024-02-23T08:10:11;7.60;99.90
16174;DHT22;14031;50.158;8.626;2024-02-23T08:12:38;7.70;99.90
16174;DHT22;14031;50.158;8.626;2024-02-23T08:15:08;7.70;99.90
16174;DHT22;14031;50.158;8.626;2024-02-23T08:17:34;7.80;99.90
16174;DHT22;14031;50.158;8.626;2024-02-23T08:20:01;7.80;99.90
16174;DHT22;14031;50.158;8.626;2024-02-23T08:22:29;7.80;99.90
16174;DHT22;14031;50.158;8.626;2024-02-23T08:24:56;7.90;99.90
16174;DHT22;14031;50.158;8.626;2024-02-23T08:27:23;7.90;99.90
16174;DHT22;14031;50.158;8.626;2024-02-23T08:29:50;8.00;99.90
16174;DHT22;14031;50.158;8.626;2024-02-23T08:32:18;8.00;99.90
16174;DHT22;14031;50.158;8.626;2024-02-23T08:34:45;8.00;99.90
16174;DHT22;14031;50.158;8.626;2024-02-23T08:37:12;8.00;99.90
16174;DHT22;14031;50.158;8.626;2024-02-23T08:39:39;8.00;99.90
16174;DHT22;14031;50.158;8.626;2024-02-23T08:42:06;8.10;99.90
16174;DHT22;14031;50.158;8.626;2024-02-23T08:44:32;8.20;99.90
16174;DHT22;14031;50.158;8.626;2024-02-23T08:46:59;8.20;99.90
16174;DHT22;14031;50.158;8.626;2024-02-23T08:49:28;8.20;99.90
16174;DHT22;14031;50.158;8.626;2024-02-23T08:51:55;8.30;99.90
16174;DHT22;14031;50.158;8.626;2024-02-23T08:54:23;8.10;99.90
16174;DHT22;14031;50.158;8.626;2024-02-23T08:56:50;8.10;99.90
16174;DHT22;14031;50.158;8.626;2024-02-23T08:59:17;8.10;99.90
16174;DHT22;14031;50.158;8.626;2024-02-23T09:01:44;8.20;99.90
16174;DHT22;14031;50.158;8.626;2024-02-23T09:04:12;8.20;99.90
16174;DHT22;14031;50.158;8.626;2024-02-23T09:06:40;8.20;99.90
16174;DHT22;14031;50.158;8.626;2024-02-23T09:09:07;8.20;99.90
16174;DHT22;14031;50.158;8.626;2024-02-23T09:11:35;8.20;99.90
16174;DHT22;14031;50.158;8.626;2024-02-23T09:14:02;8.30;99.90
16174;DHT22;14031;50.158;8.626;2024-02-23T09:16:29;8.20;99.90
16174;DHT22;14031;50.158;8.626;2024-02-23T09:18:56;8.20;99.90
16174;DHT22;14031;50.158;8.626;2024-02-23T09:21:23;8.30;99.90
16174;DHT22;14031;50.158;8.626;2024-02-23T09:23:51;8.30;99.90
16174;DHT22;14031;50.158;8.626;2024-02-23T09:26:17;8.20;99.90
16174;DHT22;14031;50.158;8.626;2024-02-23T09:28:44;8.20;99.90
16174;DHT22;14031;50.158;8.626;2024-02-23T09:31:11;8.20;99.90
16174;DHT22;14031;50.158;8.626;2024-02-23T09:33:38;8.20;99.90
16174;DHT22;14031;50.158;8.626;2024-02-23T09:36:05;8.20;99.90
16174;DHT22;14031;50.158;8.626;2024-02-23T09:38:32;8.30;99.90
16174;DHT22;14031;50.158;8.626;2024-02-23T09:41:00;8.40;99.90
16174;DHT22;14031;50.158;8.626;2024-02-23T09:43:29;8.50;99.90
16174;DHT22;14031;50.158;8.626;2024-02-23T09:45:57;8.60;99.90
16174;DHT22;14031;50.158;8.626;2024-02-23T09:48:24;8.70;99.90
16174;DHT22;14031;50.158;8.626;2024-02-23T09:50:52;8.90;99.90
16174;DHT22;14031;50.158;8.626;2024-02-23T09:53:19;9.00;99.90
16174;DHT22;14031;50.158;8.626;2024-02-23T09:55:47;9.10;99.90
16174;DHT22;14031;50.158;8.626;2024-02-23T09:58:18;9.10;99.90
16174;DHT22;14031;50.158;8.626;2024-02-23T10:00:46;9.20;99.90
16174;DHT22;14031;50.158;8.626;2024-02-23T10:03:13;9.30;99.90
16174;DHT22;14031;50.158;8.626;2024-02-23T10:05:40;9.40;99.90
16174;DHT22;14031;50.158;8.626;2024-02-23T10:08:08;9.50;99.90
16174;DHT22;14031;50.158;8.626;2024-02-23T10:10:35;9.50;99.90
16174;DHT22;14031;50.158;8.626;2024-02-23T10:13:02;9.70;99.90
16174;DHT22;14031;50.158;8.626;2024-02-23T10:15:31;9.70;99.90
16174;DHT22;14031;50.158;8.626;2024-02-23T10:17:58;9.90;99.90
16174;DHT22;14031;50.158;8.626;2024-02-23T10:20:25;9.90;99.90
16174;DHT22;14031;50.158;8.626;2024-02-23T10:22:52;9.90;99.90
16174;DHT22;14031;50.158;8.626;2024-02-23T10:25:19;10.00;99.90
16174;DHT22;14031;50.158;8.626;2024-02-23T10:27:46;10.10;99.90
16174;DHT22;14031;50.158;8.626;2024-02-23T10:30:13;10.10;99.90
16174;DHT22;14031;50.158;8.626;2024-02-23T10:32:43;10.10;99.90
16174;DHT22;14031;50.158;8.626;2024-02-23T10:35:13;10.10;99.90
16174;DHT22;14031;50.158;8.626;2024-02-23T10:37:42;10.10;99.90
16174;DHT22;14031;50.158;8.626;2024-02-23T10:40:11;10.10;99.90
16174;DHT22;14031;50.158;8.626;2024-02-23T10:42:39;10.10;99.90
16174;DHT22;14031;50.158;8.626;2024-02-23T10:45:08;10.00;99.90
16174;DHT22;14031;50.158;8.626;2024-02-23T10:47:36;10.00;99.90
16174;DHT22;14031;50.158;8.626;2024-02-23T10:50:06;10.00;99.90
16174;DHT22;14031;50.158;8.626;2024-02-23T10:52:34;9.90;99.90
16174;DHT22;14031;50.158;8.626;2024-02-23T10:55:01;9.90;99.90
16174;DHT22;14031;50.158;8.626;2024-02-23T10:57:30;9.90;99.90
16174;DHT22;14031;50.158;8.626;2024-02-23T10:59:57;10.00;99.90
16174;DHT22;14031;50.158;8.626;2024-02-23T11:02:27;10.00;99.90
16174;DHT22;14031;50.158;8.626;2024-02-23T11:04:56;10.20;99.90
16174;DHT22;14031;50.158;8.626;2024-02-23T11:07:25;10.20;99.90
16174;DHT22;14031;50.158;8.626;2024-02-23T11:09:54;10.20;99.90
16174;DHT22;14031;50.158;8.626;2024-02-23T11:12:24;10.30;99.90
16174;DHT22;14031;50.158;8.626;2024-02-23T11:14:50;10.20;99.90
16174;DHT22;14031;50.158;8.626;2024-02-23T11:17:18;10.20;99.90
16174;DHT22;14031;50.158;8.626;2024-02-23T11:19:46;10.30;99.90
16174;DHT22;14031;50.158;8.626;2024-02-23T11:22:25;10.40;99.90
16174;DHT22;14031;50.158;8.626;2024-02-23T11:24:53;10.30;99.90
16174;DHT22;14031;50.158;8.626;2024-02-23T11:27:20;10.30;99.90
16174;DHT22;14031;50.158;8.626;2024-02-23T11:29:47;10.40;99.90
16174;DHT22;14031;50.158;8.626;2024-02-23T11:32:14;10.40;99.90
16174;DHT22;14031;50.158;8.626;2024-02-23T11:34:41;10.40;99.90
16174;DHT22;14031;50.158;8.626;2024-02-23T11:37:10;10.30;99.90
16174;DHT22;14031;50.158;8.626;2024-02-23T11:39:38;10.30;99.90
16174;DHT22;14031;50.158;8.626;2024-02-23T11:42:06;10.30;99.90
16174;DHT22;14031;50.158;8.626;2024-02-23T11:44:33;10.30;99.90
16174;DHT22;14031;50.158;8.626;2024-02-23T11:47:00;10.20;99.90
16174;DHT22;14031;50.158;8.626;2024-02-23T11:49:27;10.30;99.90
16174;DHT22;14031;50.158;8.626;2024-02-23T11:51:56;10.40;99.90
16174;DHT22;14031;50.158;8.626;2024-02-23T11:54:22;10.20;99.90
16174;DHT22;14031;50.158;8.626;2024-02-23T11:56:51;9.80;99.90
16174;DHT22;14031;50.158;8.626;2024-02-23T11:59:18;9.50;99.90
16174;DHT22;14031;50.158;8.626;2024-02-23T12:01:46;9.30;99.90
16174;DHT22;14031;50.158;8.626;2024-02-23T12:04:13;9.40;99.90
16174;DHT22;14031;50.158;8.626;2024-02-23T12:06:41;9.60;99.90
16174;DHT22;14031;50.158;8.626;2024-02-23T12:09:09;9.70;99.90
16174;DHT22;14031;50.158;8.626;2024-02-23T12:11:37;9.60;99.90
16174;DHT22;14031;50.158;8.626;2024-02-23T12:14:05;9.40;99.90
16174;DHT22;14031;50.158;8.626;2024-02-23T12:16:33;9.40;99.90
16174;DHT22;14031;50.158;8.626;2024-02-23T12:19:01;9.40;99.90
16174;DHT22;14031;50.158;8.626;2024-02-23T12:21:28;9.40;99.90
16174;DHT22;14031;50.158;8.626;2024-02-23T12:23:54;9.40;99.90
16174;DHT22;14031;50.158;8.626;2024-02-23T12:26:21;9.30;99.90
16174;DHT22;14031;50.158;8.626;2024-02-23T12:28:48;9.30;99.90
16174;DHT22;14031;50.158;8.626;2024-02-23T12:31:23;9.30;99.90
16174;DHT22;14031;50.158;8.626;2024-02-23T12:33:51;9.30;99.90
16174;DHT22;14031;50.158;8.626;2024-02-23T12:36:18;9.30;99.90
16174;DHT22;14031;50.158;8.626;2024-02-23T12:38:44;9.40;99.90
16174;DHT22;14031;50.158;8.626;2024-02-23T12:41:11;9.40;99.90
16174;DHT22;14031;50.158;8.626;2024-02-23T12:43:38;9.60;99.90
16174;DHT22;14031;50.158;8.626;2024-02-23T12:46:05;10.00;99.90
16174;DHT22;14031;50.158;8.626;2024-02-23T12:48:35;10.30;99.90
16174;DHT22;14031;50.158;8.626;2024-02-23T12:51:02;10.50;99.90
16174;DHT22;14031;50.158;8.626;2024-02-23T12:53:33;10.70;99.90
16174;DHT22;14031;50.158;8.626;2024-02-23T12:56:02;10.90;99.90
16174;DHT22;14031;50.158;8.626;2024-02-23T12:58:29;11.00;99.90
16174;DHT22;14031;50.158;8.626;2024-02-23T13:00:56;10.90;99.90
16174;DHT22;14031;50.158;8.626;2024-02-23T13:03:24;10.90;99.90
16174;DHT22;14031;50.158;8.626;2024-02-23T13:05:53;11.00;99.90
16174;DHT22;14031;50.158;8.626;2024-02-23T13:08:21;10.90;99.90
16174;DHT22;14031;50.158;8.626;2024-02-23T13:10:48;10.90;99.90
16174;DHT22;14031;50.158;8.626;2024-02-23T13:13:15;10.90;99.90
16174;DHT22;14031;50.158;8.626;2024-02-23T13:15:42;10.90;99.90
16174;DHT22;14031;50.158;8.626;2024-02-23T13:18:09;10.90;99.90
16174;DHT22;14031;50.158;8.626;2024-02-23T13:20:36;10.90;99.90
16174;DHT22;14031;50.158;8.626;2024-02-23T13:23:04;11.00;99.90
16174;DHT22;14031;50.158;8.626;2024-02-23T13:25:33;11.10;99.90
16174;DHT22;14031;50.158;8.626;2024-02-23T13:28:00;11.10;99.90
16174;DHT22;14031;50.158;8.626;2024-02-23T13:30:27;11.30;99.90
16174;DHT22;14031;50.158;8.626;2024-02-23T13:32:54;11.30;99.90
16174;DHT22;14031;50.158;8.626;2024-02-23T13:35:21;11.10;99.90
16174;DHT22;14031;50.158;8.626;2024-02-23T13:37:48;11.10;99.90
16174;DHT22;14031;50.158;8.626;2024-02-23T13:40:16;10.90;99.90
16174;DHT22;14031;50.158;8.626;2024-02-23T13:42:43;10.80;99.90
16174;DHT22;14031;50.158;8.626;2024-02-23T13:45:11;10.80;99.90
16174;DHT22;14031;50.158;8.626;2024-02-23T13:47:40;11.00;99.90
16174;DHT22;14031;50.158;8.626;2024-02-23T13:50:07;11.10;99.90
16174;DHT22;14031;50.158;8.626;2024-02-23T13:52:34;11.30;99.90
16174;DHT22;14031;50.158;8.626;2024-02-23T13:55:01;11.30;99.90
16174;DHT22;14031;50.158;8.626;2024-02-23T13:57:30;11.20;99.90
16174;DHT22;14031;50.158;8.626;2024-02-23T13:59:57;11.30;99.90
16174;DHT22;14031;50.158;8.626;2024-02-23T14:02:25;11.10;99.90
16174;DHT22;14031;50.158;8.626;2024-02-23T14:04:52;11.10;99.90
16174;DHT22;14031;50.158;8.626;2024-02-23T14:07:19;11.20;99.90
16174;DHT22;14031;50.158;8.626;2024-02-23T14:09:46;11.20;99.90
16174;DHT22;14031;50.158;8.626;2024-02-23T14:12:13;11.20;99.90
16174;DHT22;14031;50.158;8.626;2024-02-23T14:14:41;11.30;99.90
16174;DHT22;14031;50.158;8.626;2024-02-23T14:17:08;11.40;99.90
16174;DHT22;14031;50.158;8.626;2024-02-23T14:19:35;11.70;99.90
16174;DHT22;14031;50.158;8.626;2024-02-23T14:22:01;11.90;99.90
16174;DHT22;14031;50.158;8.626;2024-02-23T14:24:28;12.00;99.90
16174;DHT22;14031;50.158;8.626;2024-02-23T14:26:55;12.20;99.90
16174;DHT22;14031;50.158;8.626;2024-02-23T14:29:22;12.40;99.90
16174;DHT22;14031;50.158;8.626;2024-02-23T14:31:50;12.50;99.90
16174;DHT22;14031;50.158;8.626;2024-02-23T14:34:16;12.50;99.90
16174;DHT22;14031;50.158;8.626;2024-02-23T14:36:43;12.50;99.90
16174;DHT22;14031;50.158;8.626;2024-02-23T14:39:10;12.50;99.90
16174;DHT22;14031;50.158;8.626;2024-02-23T14:41:38;12.40;99.90
16174;DHT22;14031;50.158;8.626;2024-02-23T14:44:05;12.30;99.90
16174;DHT22;14031;50.158;8.626;2024-02-23T14:46:32;12.20;99.90
16174;DHT22;14031;50.158;8.626;2024-02-23T14:49:00;12.10;99.90
16174;DHT22;14031;50.158;8.626;2024-02-23T14:51:27;11.90;99.90
16174;DHT22;14031;50.158;8.626;2024-02-23T14:53:54;11.80;99.90
16174;DHT22;14031;50.158;8.626;2024-02-23T14:56:21;11.60;99.90
16174;DHT22;14031;50.158;8.626;2024-02-23T14:58:48;11.60;99.90
16174;DHT22;14031;50.158;8.626;2024-02-23T15:01:15;11.70;99.90
16174;DHT22;14031;50.158;8.626;2024-02-23T15:03:41;11.60;99.90
16174;DHT22;14031;50.158;8.626;2024-02-23T15:06:09;11.60;99.90
16174;DHT22;14031;50.158;8.626;2024-02-23T15:08:37;11.60;99.90
16174;DHT22;14031;50.158;8.626;2024-02-23T15:11:03;11.60;99.90
16174;DHT22;14031;50.158;8.626;2024-02-23T15:13:30;11.60;99.90
16174;DHT22;14031;50.158;8.626;2024-02-23T15:15:57;11.40;99.90
16174;DHT22;14031;50.158;8.626;2024-02-23T15:18:24;11.20;99.90
16174;DHT22;14031;50.158;8.626;2024-02-23T15:20:51;11.00;99.90
16174;DHT22;14031;50.158;8.626;2024-02-23T15:23:19;10.80;99.90
16174;DHT22;14031;50.158;8.626;2024-02-23T15:25:49;10.70;99.90
16174;DHT22;14031;50.158;8.626;2024-02-23T15:28:15;10.50;99.90
16174;DHT22;14031;50.158;8.626;2024-02-23T15:30:48;10.50;99.90
16174;DHT22;14031;50.158;8.626;2024-02-23T15:33:15;10.50;99.90
16174;DHT22;14031;50.158;8.626;2024-02-23T15:35:42;10.60;99.90
16174;DHT22;14031;50.158;8.626;2024-02-23T15:38:08;10.60;99.90
16174;DHT22;14031;50.158;8.626;2024-02-23T15:40:37;10.40;99.90
16174;DHT22;14031;50.158;8.626;2024-02-23T15:43:04;10.30;99.90